sensor_id;sensor_type;location;lat;lon;timestamp;pressure;altitude;pressure_sealevel;temperature;humidity
3122;BME280;1571;52.524;14.104;2023-07-08T00:01:12;101544.25;;;14.50;97.75
3122;BME280;1571;52.524;14.104;2023-07-08T00:03:41;101549.22;;;14.56;97.36
3122;BME280;1571;52.524;14.104;2023-07-08T00:06:16;101549.06;;;14.59;96.26
3122;BME280;1571;52.524;14.104;2023-07-08T00:08:45;101542.00;;;14.44;95.88
3122;BME280;1571;52.524;14.104;2023-07-08T00:11:15;101542.94;;;14.43;95.97
3122;BME280;1571;52.524;14.104;2023-07-08T00:13:43;101545.53;;;14.44;95.90
3122;BME280;1571;52.524;14.104;2023-07-08T00:16:17;101536.09;;;14.38;95.81
3122;BME280;1571;52.524;14.104;2023-07-08T00:18:46;101535.53;;;14.33;95.89
3122;BME280;1571;52.524;14.104;2023-07-08T00:21:17;101529.25;;;14.34;96.26
3122;BME280;1571;52.524;14.104;2023-07-08T00:23:47;101540.13;;;14.31;96.47
3122;BME280;1571;52.524;14.104;2023-07-08T00:26:19;101535.22;;;14.25;96.50
3122;BME280;1571;52.524;14.104;2023-07-08T00:28:49;101534.03;;;14.29;96.93
3122;BME280;1571;52.524;14.104;2023-07-08T00:31:19;101533.88;;;14.18;96.72
3122;BME280;1571;52.524;14.104;2023-07-08T00:33:52;101539.56;;;14.26;97.21
3122;BME280;1571;52.524;14.104;2023-07-08T00:36:24;101542.47;;;14.23;96.73
3122;BME280;1571;52.524;14.104;2023-07-08T00:38:53;101549.19;;;14.02;96.94
3122;BME280;1571;52.524;14.104;2023-07-08T00:41:25;101543.44;;;14.08;97.41
3122;BME280;1571;52.524;14.104;2023-07-08T00:43:57;101542.09;;;14.15;97.55
3122;BME280;1571;52.524;14.104;2023-07-08T00:46:34;101545.72;;;14.14;97.49
3122;BME280;1571;52.524;14.104;2023-07-08T00:49:17;101545.34;;;14.06;97.27
3122;BME280;1571;52.524;14.104;2023-07-08T00:51:49;101545.94;;;13.97;97.75
3122;BME280;1571;52.524;14.104;2023-07-08T00:54:19;101541.47;;;13.97;97.89
3122;BME280;1571;52.524;14.104;2023-07-08T00:56:49;101540.50;;;13.98;98.30
3122;BME280;1571;52.524;14.104;2023-07-08T00:59:23;101539.72;;;14.10;98.21
3122;BME280;1571;52.524;14.104;2023-07-08T01:01:55;101536.88;;;13.99;97.80
3122;BME280;1571;52.524;14.104;2023-07-08T01:04:29;101544.81;;;14.01;98.12
3122;BME280;1571;52.524;14.104;2023-07-08T01:06:59;101542.31;;;13.98;97.64
3122;BME280;1571;52.524;14.104;2023-07-08T01:09:37;101541.59;;;13.67;98.24
3122;BME280;1571;52.524;14.104;2023-07-08T01:12:13;101543.88;;;13.87;98.15
3122;BME280;1571;52.524;14.104;2023-07-08T01:14:43;101533.28;;;13.86;98.10
3122;BME280;1571;52.524;14.104;2023-07-08T01:17:13;101542.06;;;13.88;98.05
3122;BME280;1571;52.524;14.104;2023-07-08T01:19:43;101539.75;;;13.82;98.09
3122;BME280;1571;52.524;14.104;2023-07-08T01:22:12;101532.56;;;13.69;97.97
3122;BME280;1571;52.524;14.104;2023-07-08T01:24:43;101528.53;;;13.77;99.02
3122;BME280;1571;52.524;14.104;2023-07-08T01:27:15;101525.56;;;13.81;99.30
3122;BME280;1571;52.524;14.104;2023-07-08T01:29:44;101523.50;;;13.72;99.04
3122;BME280;1571;52.524;14.104;2023-07-08T01:32:14;101523.31;;;13.61;98.79
3122;BME280;1571;52.524;14.104;2023-07-08T01:34:45;101532.63;;;13.68;99.08
3122;BME280;1571;52.524;14.104;2023-07-08T01:37:36;101519.88;;;13.59;99.58
3122;BME280;1571;52.524;14.104;2023-07-08T01:40:15;101513.97;;;13.53;99.47
3122;BME280;1571;52.524;14.104;2023-07-08T01:42:44;101532.91;;;13.35;99.92
3122;BME280;1571;52.524;14.104;2023-07-08T01:45:13;101523.28;;;13.46;100.00
3122;BME280;1571;52.524;14.104;2023-07-08T01:47:46;101520.81;;;13.43;100.00
3122;BME280;1571;52.524;14.104;2023-07-08T01:50:18;101525.78;;;13.35;100.00
3122;BME280;1571;52.524;14.104;2023-07-08T01:52:50;101529.41;;;13.34;100.00
3122;BME280;1571;52.524;14.104;2023-07-08T01:55:21;101532.47;;;13.42;100.00
3122;BME280;1571;52.524;14.104;2023-07-08T01:57:51;101525.03;;;13.33;100.00
3122;BME280;1571;52.524;14.104;2023-07-08T02:00:21;101524.97;;;13.19;100.00
3122;BME280;1571;52.524;14.104;2023-07-08T02:02:50;101527.63;;;13.19;100.00
3122;BME280;1571;52.524;14.104;2023-07-08T02:05:19;101527.81;;;12.71;100.00
3122;BME280;1571;52.524;14.104;2023-07-08T02:07:49;101532.84;;;13.06;100.00
3122;BME280;1571;52.524;14.104;2023-07-08T02:10:17;101530.66;;;13.12;100.00
3122;BME280;1571;52.524;14.104;2023-07-08T02:12:45;101527.63;;;12.44;100.00
3122;BME280;1571;52.524;14.104;2023-07-08T02:15:13;101533.66;;;12.78;100.00
3122;BME280;1571;52.524;14.104;2023-07-08T02:17:42;101532.19;;;13.02;100.00
3122;BME280;1571;52.524;14.104;2023-07-08T02:20:11;101528.88;;;12.68;100.00
3122;BME280;1571;52.524;14.104;2023-07-08T02:22:39;101526.09;;;13.00;100.00
3122;BME280;1571;52.524;14.104;2023-07-08T02:25:09;101520.28;;;12.63;100.00
3122;BME280;1571;52.524;14.104;2023-07-08T02:27:38;101527.22;;;12.96;100.00
3122;BME280;1571;52.524;14.104;2023-07-08T02:30:07;101517.09;;;12.87;100.00
3122;BME280;1571;52.524;14.104;2023-07-08T02:32:36;101519.44;;;13.07;100.00
3122;BME280;1571;52.524;14.104;2023-07-08T02:35:07;101522.28;;;13.04;100.00
3122;BME280;1571;52.524;14.104;2023-07-08T02:37:35;101516.19;;;13.02;100.00
3122;BME280;1571;52.524;14.104;2023-07-08T02:40:05;101522.66;;;13.12;100.00
3122;BME280;1571;52.524;14.104;2023-07-08T02:42:34;101512.75;;;13.00;100.00
3122;BME280;1571;52.524;14.104;2023-07-08T02:45:05;101526.50;;;13.08;100.00
3122;BME280;1571;52.524;14.104;2023-07-08T02:47:33;101517.03;;;13.03;100.00
3122;BME280;1571;52.524;14.104;2023-07-08T02:50:01;101520.34;;;12.92;100.00
3122;BME280;1571;52.524;14.104;2023-07-08T02:52:31;101511.69;;;12.88;100.00
3122;BME280;1571;52.524;14.104;2023-07-08T02:54:59;101512.91;;;12.83;100.00
3122;BME280;1571;52.524;14.104;2023-07-08T02:57:28;101522.25;;;12.90;100.00
3122;BME280;1571;52.524;14.104;2023-07-08T02:59:57;101512.53;;;12.89;100.00
3122;BME280;1571;52.524;14.104;2023-07-08T03:02:26;101517.31;;;12.84;100.00
3122;BME280;1571;52.524;14.104;2023-07-08T03:04:54;101517.09;;;12.87;100.00
3122;BME280;1571;52.524;14.104;2023-07-08T03:07:26;101516.53;;;12.82;100.00
3122;BME280;1571;52.524;14.104;2023-07-08T03:09:54;101512.13;;;12.81;100.00
3122;BME280;1571;52.524;14.104;2023-07-08T03:12:23;101506.03;;;12.79;100.00
3122;BME280;1571;52.524;14.104;2023-07-08T03:14:51;101513.47;;;12.74;100.00
3122;BME280;1571;52.524;14.104;2023-07-08T03:17:20;101512.19;;;12.95;100.00
3122;BME280;1571;52.524;14.104;2023-07-08T03:19:50;101516.75;;;12.93;100.00
3122;BME280;1571;52.524;14.104;2023-07-08T03:22:18;101512.75;;;13.00;100.00
3122;BME280;1571;52.524;14.104;2023-07-08T03:24:46;101515.97;;;12.91;100.00
3122;BME280;1571;52.524;14.104;2023-07-08T03:27:19;101516.38;;;12.99;100.00
3122;BME280;1571;52.524;14.104;2023-07-08T03:29:50;101509.72;;;13.06;100.00
3122;BME280;1571;52.524;14.104;2023-07-08T03:32:18;101511.72;;;13.03;100.00
3122;BME280;1571;52.524;14.104;2023-07-08T03:34:48;101510.09;;;13.15;100.00
3122;BME280;1571;52.524;14.104;2023-07-08T03:37:16;101518.50;;;13.23;100.00
3122;BME280;1571;52.524;14.104;2023-07-08T03:39:44;101504.56;;;13.33;100.00
3122;BME280;1571;52.524;14.104;2023-07-08T03:42:13;101507.31;;;13.32;100.00
3122;BME280;1571;52.524;14.104;2023-07-08T03:44:41;101517.22;;;13.44;100.00
3122;BME280;1571;52.524;14.104;2023-07-08T03:47:10;101511.13;;;13.42;100.00
3122;BME280;1571;52.524;14.104;2023-07-08T03:49:39;101508.13;;;13.18;100.00
3122;BME280;1571;52.524;14.104;2023-07-08T03:52:14;101509.03;;;13.33;100.00
3122;BME280;1571;52.524;14.104;2023-07-08T03:54:44;101498.91;;;13.52;100.00
3122;BME280;1571;52.524;14.104;2023-07-08T03:57:13;101505.41;;;13.63;100.00
3122;BME280;1571;52.524;14.104;2023-07-08T03:59:44;101505.25;;;13.93;100.00
3122;BME280;1571;52.524;14.104;2023-07-08T04:02:13;101499.22;;;14.04;99.17
3122;BME280;1571;52.524;14.104;2023-07-08T04:04:41;101504.81;;;14.13;98.84
3122;BME280;1571;52.524;14.104;2023-07-08T04:07:11;101504.63;;;14.16;98.05
3122;BME280;1571;52.524;14.104;2023-07-08T04:09:40;101501.28;;;14.13;97.75
3122;BME280;1571;52.524;14.104;2023-07-08T04:12:11;101509.91;;;14.31;97.67
3122;BME280;1571;52.524;14.104;2023-07-08T04:14:39;101507.06;;;14.47;97.27
3122;BME280;1571;52.524;14.104;2023-07-08T04:17:10;101506.63;;;14.67;96.82
3122;BME280;1571;52.524;14.104;2023-07-08T04:19:39;101506.84;;;14.64;96.94
3122;BME280;1571;52.524;14.104;2023-07-08T04:22:12;101501.22;;;14.82;96.99
3122;BME280;1571;52.524;14.104;2023-07-08T04:24:40;101508.78;;;14.88;97.22
3122;BME280;1571;52.524;14.104;2023-07-08T04:27:12;101507.97;;;15.00;97.21
3122;BME280;1571;52.524;14.104;2023-07-08T04:29:42;101505.59;;;15.34;96.52
3122;BME280;1571;52.524;14.104;2023-07-08T04:32:11;101502.81;;;15.74;96.11
3122;BME280;1571;52.524;14.104;2023-07-08T04:34:39;101502.66;;;15.62;96.36
3122;BME280;1571;52.524;14.104;2023-07-08T04:37:08;101509.31;;;15.70;96.88
3122;BME280;1571;52.524;14.104;2023-07-08T04:39:40;101510.28;;;15.81;96.73
3122;BME280;1571;52.524;14.104;2023-07-08T04:42:08;101499.66;;;15.80;95.41
3122;BME280;1571;52.524;14.104;2023-07-08T04:44:36;101496.75;;;16.20;94.68
3122;BME280;1571;52.524;14.104;2023-07-08T04:47:05;101485.81;;;16.82;87.84
3122;BME280;1571;52.524;14.104;2023-07-08T04:49:33;101491.91;;;16.84;85.09
3122;BME280;1571;52.524;14.104;2023-07-08T04:52:02;101490.19;;;16.83;86.22
3122;BME280;1571;52.524;14.104;2023-07-08T04:54:30;101496.25;;;16.74;87.56
3122;BME280;1571;52.524;14.104;2023-07-08T04:57:00;101491.00;;;17.19;85.42
3122;BME280;1571;52.524;14.104;2023-07-08T04:59:28;101497.56;;;17.26;87.64
3122;BME280;1571;52.524;14.104;2023-07-08T05:02:01;101499.53;;;17.47;87.59
3122;BME280;1571;52.524;14.104;2023-07-08T05:04:30;101505.53;;;17.62;85.35
3122;BME280;1571;52.524;14.104;2023-07-08T05:06:58;101505.88;;;17.46;87.38
3122;BME280;1571;52.524;14.104;2023-07-08T05:09:26;101503.84;;;17.50;83.60
3122;BME280;1571;52.524;14.104;2023-07-08T05:11:54;101503.56;;;17.98;82.32
3122;BME280;1571;52.524;14.104;2023-07-08T05:14:24;101502.16;;;18.15;79.41
3122;BME280;1571;52.524;14.104;2023-07-08T05:16:52;101501.53;;;18.22;77.83
3122;BME280;1571;52.524;14.104;2023-07-08T05:19:21;101498.88;;;18.43;77.19
3122;BME280;1571;52.524;14.104;2023-07-08T05:21:50;101497.44;;;18.39;77.04
3122;BME280;1571;52.524;14.104;2023-07-08T05:24:20;101508.56;;;18.35;76.36
3122;BME280;1571;52.524;14.104;2023-07-08T05:26:48;101498.75;;;18.24;76.31
3122;BME280;1571;52.524;14.104;2023-07-08T05:29:17;101502.75;;;18.50;75.89
3122;BME280;1571;52.524;14.104;2023-07-08T05:31:46;101500.25;;;18.70;74.72
3122;BME280;1571;52.524;14.104;2023-07-08T05:34:15;101500.25;;;18.70;74.58
3122;BME280;1571;52.524;14.104;2023-07-08T05:36:43;101510.06;;;18.60;76.17
3122;BME280;1571;52.524;14.104;2023-07-08T05:39:12;101519.03;;;18.81;75.31
3122;BME280;1571;52.524;14.104;2023-07-08T05:41:40;101507.50;;;18.90;75.00
3122;BME280;1571;52.524;14.104;2023-07-08T05:44:08;101517.16;;;19.14;74.11
3122;BME280;1571;52.524;14.104;2023-07-08T05:46:37;101517.75;;;18.97;74.24
3122;BME280;1571;52.524;14.104;2023-07-08T05:49:07;101516.34;;;19.23;73.54
3122;BME280;1571;52.524;14.104;2023-07-08T05:51:36;101520.22;;;19.09;73.71
3122;BME280;1571;52.524;14.104;2023-07-08T05:54:04;101510.81;;;19.55;72.16
3122;BME280;1571;52.524;14.104;2023-07-08T05:56:32;101519.31;;;19.51;71.50
3122;BME280;1571;52.524;14.104;2023-07-08T05:59:01;101517.72;;;19.79;70.84
3122;BME280;1571;52.524;14.104;2023-07-08T06:01:29;101522.19;;;19.59;71.32
3122;BME280;1571;52.524;14.104;2023-07-08T06:03:58;101519.75;;;19.56;70.64
3122;BME280;1571;52.524;14.104;2023-07-08T06:06:28;101519.63;;;19.98;69.97
3122;BME280;1571;52.524;14.104;2023-07-08T06:08:56;101519.31;;;19.82;69.69
3122;BME280;1571;52.524;14.104;2023-07-08T06:11:25;101515.28;;;20.26;69.27
3122;BME280;1571;52.524;14.104;2023-07-08T06:13:53;101513.91;;;20.61;67.25
3122;BME280;1571;52.524;14.104;2023-07-08T06:16:21;101528.53;;;20.58;67.25
3122;BME280;1571;52.524;14.104;2023-07-08T06:18:55;101514.88;;;20.99;66.25
3122;BME280;1571;52.524;14.104;2023-07-08T06:21:24;101526.22;;;20.34;66.53
3122;BME280;1571;52.524;14.104;2023-07-08T06:23:53;101528.81;;;20.75;66.67
3122;BME280;1571;52.524;14.104;2023-07-08T06:26:22;101521.66;;;21.13;64.50
3122;BME280;1571;52.524;14.104;2023-07-08T06:28:50;101528.19;;;21.20;65.27
3122;BME280;1571;52.524;14.104;2023-07-08T06:31:19;101521.88;;;21.49;63.94
3122;BME280;1571;52.524;14.104;2023-07-08T06:33:47;101535.78;;;21.34;64.64
3122;BME280;1571;52.524;14.104;2023-07-08T06:36:15;101528.50;;;21.64;65.10
3122;BME280;1571;52.524;14.104;2023-07-08T06:38:44;101531.63;;;21.59;63.33
3122;BME280;1571;52.524;14.104;2023-07-08T06:41:14;101523.09;;;21.92;63.17
3122;BME280;1571;52.524;14.104;2023-07-08T06:43:42;101524.78;;;21.93;63.39
3122;BME280;1571;52.524;14.104;2023-07-08T06:46:16;101532.09;;;21.55;64.11
3122;BME280;1571;52.524;14.104;2023-07-08T06:48:46;101530.25;;;21.46;63.62
3122;BME280;1571;52.524;14.104;2023-07-08T06:51:14;101531.38;;;22.08;62.42
3122;BME280;1571;52.524;14.104;2023-07-08T06:53:42;101525.41;;;21.87;62.44
3122;BME280;1571;52.524;14.104;2023-07-08T06:56:10;101520.16;;;22.31;61.52
3122;BME280;1571;52.524;14.104;2023-07-08T06:58:40;101524.19;;;21.71;61.72
3122;BME280;1571;52.524;14.104;2023-07-08T07:01:08;101527.72;;;21.72;62.17
3122;BME280;1571;52.524;14.104;2023-07-08T07:03:37;101530.19;;;21.93;62.32
3122;BME280;1571;52.524;14.104;2023-07-08T07:06:05;101524.06;;;22.18;61.48
3122;BME280;1571;52.524;14.104;2023-07-08T07:08:34;101522.25;;;22.37;61.68
3122;BME280;1571;52.524;14.104;2023-07-08T07:11:02;101521.84;;;22.85;60.27
3122;BME280;1571;52.524;14.104;2023-07-08T07:13:30;101517.41;;;23.02;59.21
3122;BME280;1571;52.524;14.104;2023-07-08T07:16:01;101513.22;;;23.08;59.35
3122;BME280;1571;52.524;14.104;2023-07-08T07:18:30;101519.06;;;22.77;59.07
3122;BME280;1571;52.524;14.104;2023-07-08T07:20:59;101525.91;;;23.07;59.87
3122;BME280;1571;52.524;14.104;2023-07-08T07:23:27;101520.47;;;23.07;59.54
3122;BME280;1571;52.524;14.104;2023-07-08T07:25:55;101517.47;;;23.71;59.17
3122;BME280;1571;52.524;14.104;2023-07-08T07:28:24;101519.78;;;23.58;59.08
3122;BME280;1571;52.524;14.104;2023-07-08T07:30:56;101507.63;;;24.13;56.56
3122;BME280;1571;52.524;14.104;2023-07-08T07:33:26;101508.31;;;24.15;56.70
3122;BME280;1571;52.524;14.104;2023-07-08T07:35:55;101502.84;;;23.64;57.50
3122;BME280;1571;52.524;14.104;2023-07-08T07:38:23;101507.13;;;24.17;56.71
3122;BME280;1571;52.524;14.104;2023-07-08T07:40:56;101513.19;;;24.11;57.57
3122;BME280;1571;52.524;14.104;2023-07-08T07:43:27;101501.53;;;24.27;56.00
3122;BME280;1571;52.524;14.104;2023-07-08T07:45:55;101500.75;;;24.51;54.21
3122;BME280;1571;52.524;14.104;2023-07-08T07:48:24;101503.44;;;24.35;55.20
3122;BME280;1571;52.524;14.104;2023-07-08T07:50:54;101502.75;;;24.90;55.24
3122;BME280;1571;52.524;14.104;2023-07-08T07:53:22;101494.56;;;25.14;53.52
3122;BME280;1571;52.524;14.104;2023-07-08T07:55:56;101494.16;;;25.50;52.72
3122;BME280;1571;52.524;14.104;2023-07-08T07:58:25;101483.88;;;25.38;50.45
3122;BME280;1571;52.524;14.104;2023-07-08T08:00:53;101485.69;;;25.45;49.80
3122;BME280;1571;52.524;14.104;2023-07-08T08:03:22;101474.28;;;25.58;49.85
3122;BME280;1571;52.524;14.104;2023-07-08T08:05:50;101477.31;;;25.55;49.54
3122;BME280;1571;52.524;14.104;2023-07-08T08:08:20;101486.59;;;25.69;50.49
3122;BME280;1571;52.524;14.104;2023-07-08T08:10:49;101487.63;;;25.76;49.59
3122;BME280;1571;52.524;14.104;2023-07-08T08:13:17;101492.03;;;25.69;49.39
3122;BME280;1571;52.524;14.104;2023-07-08T08:15:46;101491.13;;;25.85;48.95
3122;BME280;1571;52.524;14.104;2023-07-08T08:18:14;101494.59;;;25.70;49.41
3122;BME280;1571;52.524;14.104;2023-07-08T08:20:42;101486.59;;;26.31;48.61
3122;BME280;1571;52.524;14.104;2023-07-08T08:23:10;101477.41;;;26.09;47.24
3122;BME280;1571;52.524;14.104;2023-07-08T08:25:40;101481.13;;;26.40;47.92
3122;BME280;1571;52.524;14.104;2023-07-08T08:28:08;101483.34;;;26.36;47.87
3122;BME280;1571;52.524;14.104;2023-07-08T08:30:36;101477.56;;;26.39;47.22
3122;BME280;1571;52.524;14.104;2023-07-08T08:33:05;101486.91;;;26.36;46.96
3122;BME280;1571;52.524;14.104;2023-07-08T08:35:33;101482.44;;;26.21;45.21
3122;BME280;1571;52.524;14.104;2023-07-08T08:38:03;101471.00;;;26.25;46.19
3122;BME280;1571;52.524;14.104;2023-07-08T08:40:32;101482.13;;;26.38;46.11
3122;BME280;1571;52.524;14.104;2023-07-08T08:43:05;101482.00;;;26.78;47.08
3122;BME280;1571;52.524;14.104;2023-07-08T08:45:39;101469.06;;;26.34;43.72
3122;BME280;1571;52.524;14.104;2023-07-08T08:48:14;101467.13;;;26.66;44.84
3122;BME280;1571;52.524;14.104;2023-07-08T08:50:49;101456.63;;;26.40;43.52
3122;BME280;1571;52.524;14.104;2023-07-08T08:53:19;101469.81;;;26.89;44.00
3122;BME280;1571;52.524;14.104;2023-07-08T08:55:52;101467.44;;;26.86;44.61
3122;BME280;1571;52.524;14.104;2023-07-08T08:58:29;101468.59;;;27.06;45.04
3122;BME280;1571;52.524;14.104;2023-07-08T09:01:01;101480.16;;;27.08;45.13
3122;BME280;1571;52.524;14.104;2023-07-08T09:03:37;101477.09;;;27.41;45.38
3122;BME280;1571;52.524;14.104;2023-07-08T09:06:16;101476.66;;;27.23;43.96
3122;BME280;1571;52.524;14.104;2023-07-08T09:08:47;101475.31;;;27.48;44.97
3122;BME280;1571;52.524;14.104;2023-07-08T09:11:27;101466.53;;;27.08;43.05
3122;BME280;1571;52.524;14.104;2023-07-08T09:13:59;101455.88;;;27.22;42.03
3122;BME280;1571;52.524;14.104;2023-07-08T09:16:39;101460.00;;;27.47;43.53
3122;BME280;1571;52.524;14.104;2023-07-08T09:19:12;101458.09;;;27.33;42.54
3122;BME280;1571;52.524;14.104;2023-07-08T09:21:45;101458.78;;;27.35;42.70
3122;BME280;1571;52.524;14.104;2023-07-08T09:24:19;101465.81;;;27.44;42.53
3122;BME280;1571;52.524;14.104;2023-07-08T09:26:50;101448.97;;;27.55;42.41
3122;BME280;1571;52.524;14.104;2023-07-08T09:29:21;101456.13;;;27.12;42.64
3122;BME280;1571;52.524;14.104;2023-07-08T09:31:50;101458.41;;;27.89;42.91
3122;BME280;1571;52.524;14.104;2023-07-08T09:34:21;101453.97;;;27.52;42.14
3122;BME280;1571;52.524;14.104;2023-07-08T09:36:51;101439.09;;;27.54;40.91
3122;BME280;1571;52.524;14.104;2023-07-08T09:39:21;101461.13;;;27.23;39.22
3122;BME280;1571;52.524;14.104;2023-07-08T09:41:49;101455.06;;;27.57;39.39
3122;BME280;1571;52.524;14.104;2023-07-08T09:44:23;101461.69;;;28.21;40.86
3122;BME280;1571;52.524;14.104;2023-07-08T09:46:54;101461.09;;;27.08;40.33
3122;BME280;1571;52.524;14.104;2023-07-08T09:49:26;101447.50;;;27.89;38.54
3122;BME280;1571;52.524;14.104;2023-07-08T09:51:55;101446.66;;;27.89;38.22
3122;BME280;1571;52.524;14.104;2023-07-08T09:54:24;101449.03;;;27.77;38.22
3122;BME280;1571;52.524;14.104;2023-07-08T09:56:59;101448.31;;;28.26;39.07
3122;BME280;1571;52.524;14.104;2023-07-08T09:59:31;101446.44;;;28.48;37.77
3122;BME280;1571;52.524;14.104;2023-07-08T10:02:23;101443.81;;;28.40;36.57
3122;BME280;1571;52.524;14.104;2023-07-08T10:04:55;101421.50;;;28.36;34.80
3122;BME280;1571;52.524;14.104;2023-07-08T10:07:27;101419.84;;;28.14;34.20
3122;BME280;1571;52.524;14.104;2023-07-08T10:09:58;101419.84;;;28.35;34.13
3122;BME280;1571;52.524;14.104;2023-07-08T10:12:28;101425.44;;;28.27;35.35
3122;BME280;1571;52.524;14.104;2023-07-08T10:15:01;101422.69;;;28.27;34.90
3122;BME280;1571;52.524;14.104;2023-07-08T10:17:35;101427.97;;;28.50;34.37
3122;BME280;1571;52.524;14.104;2023-07-08T10:20:10;101425.94;;;28.37;34.26
3122;BME280;1571;52.524;14.104;2023-07-08T10:22:47;101432.59;;;28.50;34.50
3122;BME280;1571;52.524;14.104;2023-07-08T10:25:27;101425.03;;;28.52;34.98
3122;BME280;1571;52.524;14.104;2023-07-08T10:28:04;101425.34;;;28.92;33.80
3122;BME280;1571;52.524;14.104;2023-07-08T10:30:50;101425.75;;;28.60;35.40
3122;BME280;1571;52.524;14.104;2023-07-08T10:33:36;101421.53;;;28.93;35.42
3122;BME280;1571;52.524;14.104;2023-07-08T10:36:18;101416.78;;;29.01;35.34
3122;BME280;1571;52.524;14.104;2023-07-08T10:38:55;101412.47;;;28.85;33.74
3122;BME280;1571;52.524;14.104;2023-07-08T10:41:33;101415.72;;;28.68;34.04
3122;BME280;1571;52.524;14.104;2023-07-08T10:44:12;101412.63;;;28.28;34.49
3122;BME280;1571;52.524;14.104;2023-07-08T10:46:51;101415.56;;;28.48;34.94
3122;BME280;1571;52.524;14.104;2023-07-08T10:49:31;101411.59;;;29.13;35.08
3122;BME280;1571;52.524;14.104;2023-07-08T10:55:02;101414.88;;;29.02;34.88
3122;BME280;1571;52.524;14.104;2023-07-08T10:57:49;101402.16;;;28.31;33.58
3122;BME280;1571;52.524;14.104;2023-07-08T11:00:30;101389.63;;;28.65;33.83
3122;BME280;1571;52.524;14.104;2023-07-08T11:05:59;101390.16;;;29.10;33.93
3122;BME280;1571;52.524;14.104;2023-07-08T11:08:35;101390.91;;;29.04;32.93
3122;BME280;1571;52.524;14.104;2023-07-08T11:11:08;101378.63;;;29.21;33.00
3122;BME280;1571;52.524;14.104;2023-07-08T11:13:47;101370.44;;;29.21;32.73
3122;BME280;1571;52.524;14.104;2023-07-08T11:16:22;101376.81;;;29.42;32.73
3122;BME280;1571;52.524;14.104;2023-07-08T11:18:58;101373.78;;;29.17;32.79
3122;BME280;1571;52.524;14.104;2023-07-08T11:21:32;101376.78;;;29.35;33.06
3122;BME280;1571;52.524;14.104;2023-07-08T11:24:06;101370.13;;;29.03;32.74
3122;BME280;1571;52.524;14.104;2023-07-08T11:26:43;101371.06;;;29.23;32.03
3122;BME280;1571;52.524;14.104;2023-07-08T11:29:19;101368.72;;;29.20;32.00
3122;BME280;1571;52.524;14.104;2023-07-08T11:31:49;101363.84;;;29.64;31.78
3122;BME280;1571;52.524;14.104;2023-07-08T11:34:20;101358.56;;;29.56;31.24
3122;BME280;1571;52.524;14.104;2023-07-08T11:36:51;101363.50;;;29.94;33.04
3122;BME280;1571;52.524;14.104;2023-07-08T11:39:28;101367.66;;;29.70;34.05
3122;BME280;1571;52.524;14.104;2023-07-08T11:42:05;101354.63;;;29.72;33.03
3122;BME280;1571;52.524;14.104;2023-07-08T11:44:42;101347.09;;;30.00;31.74
3122;BME280;1571;52.524;14.104;2023-07-08T11:47:15;101344.31;;;29.12;31.57
3122;BME280;1571;52.524;14.104;2023-07-08T11:49:47;101342.09;;;29.36;31.50
3122;BME280;1571;52.524;14.104;2023-07-08T11:52:18;101340.53;;;29.68;31.37
3122;BME280;1571;52.524;14.104;2023-07-08T11:54:48;101345.00;;;30.16;31.58
3122;BME280;1571;52.524;14.104;2023-07-08T11:57:28;101339.41;;;29.56;31.33
3122;BME280;1571;52.524;14.104;2023-07-08T12:00:17;101326.19;;;29.66;30.79
3122;BME280;1571;52.524;14.104;2023-07-08T12:02:53;101328.09;;;29.79;31.96
3122;BME280;1571;52.524;14.104;2023-07-08T12:05:32;101323.66;;;29.03;32.37
3122;BME280;1571;52.524;14.104;2023-07-08T12:08:02;101327.63;;;29.55;31.72
3122;BME280;1571;52.524;14.104;2023-07-08T12:10:34;101329.72;;;29.53;32.66
3122;BME280;1571;52.524;14.104;2023-07-08T12:13:03;101328.97;;;30.19;31.92
3122;BME280;1571;52.524;14.104;2023-07-08T12:15:32;101313.31;;;29.53;31.56
3122;BME280;1571;52.524;14.104;2023-07-08T12:18:05;101323.41;;;29.46;32.00
3122;BME280;1571;52.524;14.104;2023-07-08T12:20:37;101322.31;;;29.40;31.57
3122;BME280;1571;52.524;14.104;2023-07-08T12:23:11;101326.13;;;28.98;31.56
3122;BME280;1571;52.524;14.104;2023-07-08T12:25:40;101325.78;;;29.08;31.69
3122;BME280;1571;52.524;14.104;2023-07-08T12:28:09;101326.91;;;29.26;32.38
3122;BME280;1571;52.524;14.104;2023-07-08T12:30:39;101315.97;;;29.26;32.05
3122;BME280;1571;52.524;14.104;2023-07-08T12:33:11;101313.34;;;29.66;31.57
3122;BME280;1571;52.524;14.104;2023-07-08T12:35:42;101311.28;;;29.68;31.01
3122;BME280;1571;52.524;14.104;2023-07-08T12:38:18;101305.19;;;29.80;31.35
3122;BME280;1571;52.524;14.104;2023-07-08T12:40:48;101320.06;;;29.57;32.60
3122;BME280;1571;52.524;14.104;2023-07-08T12:43:18;101306.38;;;29.57;32.33
3122;BME280;1571;52.524;14.104;2023-07-08T12:45:46;101311.69;;;29.79;33.57
3122;BME280;1571;52.524;14.104;2023-07-08T12:48:15;101315.00;;;29.67;33.65
3122;BME280;1571;52.524;14.104;2023-07-08T12:50:44;101315.22;;;29.53;32.80
3122;BME280;1571;52.524;14.104;2023-07-08T12:53:13;101308.53;;;29.07;31.96
3122;BME280;1571;52.524;14.104;2023-07-08T12:55:43;101314.31;;;29.32;32.65
3122;BME280;1571;52.524;14.104;2023-07-08T12:58:14;101306.13;;;29.32;32.26
3122;BME280;1571;52.524;14.104;2023-07-08T13:00:48;101302.81;;;29.50;32.05
3122;BME280;1571;52.524;14.104;2023-07-08T13:03:18;101309.59;;;29.94;33.74
3122;BME280;1571;52.524;14.104;2023-07-08T13:05:52;101295.06;;;29.94;32.05
3122;BME280;1571;52.524;14.104;2023-07-08T13:08:23;101294.44;;;29.92;31.85
3122;BME280;1571;52.524;14.104;2023-07-08T13:10:56;101292.75;;;30.37;32.37
3122;BME280;1571;52.524;14.104;2023-07-08T13:13:28;101288.06;;;30.58;30.64
3122;BME280;1571;52.524;14.104;2023-07-08T13:15:58;101280.91;;;30.57;30.54
3122;BME280;1571;52.524;14.104;2023-07-08T13:18:30;101275.47;;;30.23;30.11
3122;BME280;1571;52.524;14.104;2023-07-08T13:21:02;101288.13;;;29.84;31.64
3122;BME280;1571;52.524;14.104;2023-07-08T13:23:31;101289.16;;;30.10;31.88